sensor_id;sensor_type;location;lat;lon;timestamp;temperature;humidity
18932;DHT22;9598;50.954;3.112;2022-08-21T00:02:32;18.90;99.90
18932;DHT22;9598;50.954;3.112;2022-08-21T00:07:36;18.90;99.90
18932;DHT22;9598;50.954;3.112;2022-08-21T00:12:39;18.90;99.90
18932;DHT22;9598;50.954;3.112;2022-08-21T00:17:43;18.80;99.90
18932;DHT22;9598;50.954;3.112;2022-08-21T00:22:47;18.80;99.90
18932;DHT22;9598;50.954;3.112;2022-08-21T00:27:50;18.80;99.90
18932;DHT22;9598;50.954;3.112;2022-08-21T00:32:53;18.80;99.90
18932;DHT22;9598;50.954;3.112;2022-08-21T00:37:58;18.70;99.90
18932;DHT22;9598;50.954;3.112;2022-08-21T00:43:02;18.60;99.90
18932;DHT22;9598;50.954;3.112;2022-08-21T00:48:06;18.70;99.90
18932;DHT22;9598;50.954;3.112;2022-08-21T00:53:10;18.60;99.90
18932;DHT22;9598;50.954;3.112;2022-08-21T00:58:14;18.60;99.90
18932;DHT22;9598;50.954;3.112;2022-08-21T01:03:20;18.60;99.90
18932;DHT22;9598;50.954;3.112;2022-08-21T01:08:24;18.50;99.90
18932;DHT22;9598;50.954;3.112;2022-08-21T01:13:28;18.50;99.90
18932;DHT22;9598;50.954;3.112;2022-08-21T01:18:31;18.50;99.90
18932;DHT22;9598;50.954;3.112;2022-08-21T01:23:35;18.40;99.90
18932;DHT22;9598;50.954;3.112;2022-08-21T01:28:54;18.40;99.90
18932;DHT22;9598;50.954;3.112;2022-08-21T01:33:57;18.30;99.90
18932;DHT22;9598;50.954;3.112;2022-08-21T01:39:01;18.30;99.90
18932;DHT22;9598;50.954;3.112;2022-08-21T01:44:03;18.30;99.90
18932;DHT22;9598;50.954;3.112;2022-08-21T01:49:06;18.30;99.90
18932;DHT22;9598;50.954;3.112;2022-08-21T01:54:10;18.20;99.90
18932;DHT22;9598;50.954;3.112;2022-08-21T01:59:12;18.20;99.90
18932;DHT22;9598;50.954;3.112;2022-08-21T02:04:14;18.20;99.90
18932;DHT22;9598;50.954;3.112;2022-08-21T02:09:18;18.10;99.90
18932;DHT22;9598;50.954;3.112;2022-08-21T02:14:22;18.10;99.90
18932;DHT22;9598;50.954;3.112;2022-08-21T02:19:24;18.10;99.90
18932;DHT22;9598;50.954;3.112;2022-08-21T02:24:27;18.10;99.90
18932;DHT22;9598;50.954;3.112;2022-08-21T02:29:29;18.00;99.90
18932;DHT22;9598;50.954;3.112;2022-08-21T02:34:31;18.00;99.90
18932;DHT22;9598;50.954;3.112;2022-08-21T02:39:35;18.00;99.90
18932;DHT22;9598;50.954;3.112;2022-08-21T02:44:37;17.90;99.90
18932;DHT22;9598;50.954;3.112;2022-08-21T02:49:39;17.90;99.90
18932;DHT22;9598;50.954;3.112;2022-08-21T02:54:42;17.90;99.90
18932;DHT22;9598;50.954;3.112;2022-08-21T02:59:44;17.80;99.90
18932;DHT22;9598;50.954;3.112;2022-08-21T03:04:47;17.80;99.90
18932;DHT22;9598;50.954;3.112;2022-08-21T03:09:51;17.70;99.90
18932;DHT22;9598;50.954;3.112;2022-08-21T03:14:53;17.70;99.90
18932;DHT22;9598;50.954;3.112;2022-08-21T03:19:55;17.60;99.90
18932;DHT22;9598;50.954;3.112;2022-08-21T03:25:03;17.60;99.90
18932;DHT22;9598;50.954;3.112;2022-08-21T03:30:07;17.60;99.90
18932;DHT22;9598;50.954;3.112;2022-08-21T03:35:10;17.50;99.90
18932;DHT22;9598;50.954;3.112;2022-08-21T03:40:17;17.50;99.90
18932;DHT22;9598;50.954;3.112;2022-08-21T03:45:21;17.50;99.90
18932;DHT22;9598;50.954;3.112;2022-08-21T03:50:24;17.40;99.90
18932;DHT22;9598;50.954;3.112;2022-08-21T03:55:29;17.40;99.90
18932;DHT22;9598;50.954;3.112;2022-08-21T04:00:32;17.40;99.90
18932;DHT22;9598;50.954;3.112;2022-08-21T04:05:34;17.30;99.90
18932;DHT22;9598;50.954;3.112;2022-08-21T04:10:44;17.30;99.90
18932;DHT22;9598;50.954;3.112;2022-08-21T04:15:50;17.30;99.90
18932;DHT22;9598;50.954;3.112;2022-08-21T04:20:53;17.30;99.90
18932;DHT22;9598;50.954;3.112;2022-08-21T04:25:58;17.20;99.90
18932;DHT22;9598;50.954;3.112;2022-08-21T04:31:00;17.20;99.90
18932;DHT22;9598;50.954;3.112;2022-08-21T04:36:03;17.20;99.90
18932;DHT22;9598;50.954;3.112;2022-08-21T04:41:06;17.20;99.90
18932;DHT22;9598;50.954;3.112;2022-08-21T04:46:08;17.10;99.90
18932;DHT22;9598;50.954;3.112;2022-08-21T04:51:14;17.20;99.90
18932;DHT22;9598;50.954;3.112;2022-08-21T04:56:22;17.20;99.90
18932;DHT22;9598;50.954;3.112;2022-08-21T05:01:25;17.20;99.90
18932;DHT22;9598;50.954;3.112;2022-08-21T05:06:31;17.20;99.90
18932;DHT22;9598;50.954;3.112;2022-08-21T05:11:36;17.20;99.90
18932;DHT22;9598;50.954;3.112;2022-08-21T05:16:39;17.20;99.90
18932;DHT22;9598;50.954;3.112;2022-08-21T05:21:44;17.20;99.90
18932;DHT22;9598;50.954;3.112;2022-08-21T05:26:49;17.20;99.90
18932;DHT22;9598;50.954;3.112;2022-08-21T05:31:51;17.20;99.90
18932;DHT22;9598;50.954;3.112;2022-08-21T05:36:53;17.20;99.90
18932;DHT22;9598;50.954;3.112;2022-08-21T05:41:56;17.20;99.90
18932;DHT22;9598;50.954;3.112;2022-08-21T05:47:03;17.20;99.90
18932;DHT22;9598;50.954;3.112;2022-08-21T05:52:05;17.20;99.90
18932;DHT22;9598;50.954;3.112;2022-08-21T05:57:08;17.20;99.90
18932;DHT22;9598;50.954;3.112;2022-08-21T06:02:10;17.20;99.90
18932;DHT22;9598;50.954;3.112;2022-08-21T06:07:13;17.20;99.90
18932;DHT22;9598;50.954;3.112;2022-08-21T06:12:17;17.30;99.90
18932;DHT22;9598;50.954;3.112;2022-08-21T06:17:19;17.30;99.90
18932;DHT22;9598;50.954;3.112;2022-08-21T06:22:21;17.40;99.90
18932;DHT22;9598;50.954;3.112;2022-08-21T06:27:25;17.50;99.90
18932;DHT22;9598;50.954;3.112;2022-08-21T06:32:27;17.60;99.90
18932;DHT22;9598;50.954;3.112;2022-08-21T06:37:30;17.70;99.90
18932;DHT22;9598;50.954;3.112;2022-08-21T06:42:33;17.90;99.90
18932;DHT22;9598;50.954;3.112;2022-08-21T06:47:35;18.10;99.90
18932;DHT22;9598;50.954;3.112;2022-08-21T06:52:37;18.20;99.90
18932;DHT22;9598;50.954;3.112;2022-08-21T06:57:41;18.30;99.90
18932;DHT22;9598;50.954;3.112;2022-08-21T07:02:43;18.40;99.90
18932;DHT22;9598;50.954;3.112;2022-08-21T07:07:46;18.40;99.90
18932;DHT22;9598;50.954;3.112;2022-08-21T07:12:49;18.50;99.90
18932;DHT22;9598;50.954;3.112;2022-08-21T07:17:53;18.60;99.90
18932;DHT22;9598;50.954;3.112;2022-08-21T07:22:56;18.70;99.90
18932;DHT22;9598;50.954;3.112;2022-08-21T07:27:59;18.90;99.90
18932;DHT22;9598;50.954;3.112;2022-08-21T07:33:02;19.00;99.90
18932;DHT22;9598;50.954;3.112;2022-08-21T07:38:04;19.10;99.90
18932;DHT22;9598;50.954;3.112;2022-08-21T07:43:08;19.20;99.90
18932;DHT22;9598;50.954;3.112;2022-08-21T07:48:10;19.30;99.90
18932;DHT22;9598;50.954;3.112;2022-08-21T07:53:12;19.40;99.90
18932;DHT22;9598;50.954;3.112;2022-08-21T07:58:15;19.50;99.90
18932;DHT22;9598;50.954;3.112;2022-08-21T08:03:17;19.60;99.90
18932;DHT22;9598;50.954;3.112;2022-08-21T08:08:19;19.80;99.90
18932;DHT22;9598;50.954;3.112;2022-08-21T08:13:23;19.90;99.90
18932;DHT22;9598;50.954;3.112;2022-08-21T08:18:25;20.10;99.90
18932;DHT22;9598;50.954;3.112;2022-08-21T08:23:27;20.20;99.90
18932;DHT22;9598;50.954;3.112;2022-08-21T08:28:33;20.30;99.90
18932;DHT22;9598;50.954;3.112;2022-08-21T08:33:35;20.50;99.90
18932;DHT22;9598;50.954;3.112;2022-08-21T08:38:37;20.60;99.90
18932;DHT22;9598;50.954;3.112;2022-08-21T08:43:44;20.70;99.90
18932;DHT22;9598;50.954;3.112;2022-08-21T08:48:53;20.90;99.90
18932;DHT22;9598;50.954;3.112;2022-08-21T08:53:59;21.00;99.90
18932;DHT22;9598;50.954;3.112;2022-08-21T08:59:08;21.20;99.90
18932;DHT22;9598;50.954;3.112;2022-08-21T09:04:12;21.40;99.90
18932;DHT22;9598;50.954;3.112;2022-08-21T09:09:25;21.50;99.90
18932;DHT22;9598;50.954;3.112;2022-08-21T09:14:47;21.50;99.90
18932;DHT22;9598;50.954;3.112;2022-08-21T09:20:02;21.50;99.90
18932;DHT22;9598;50.954;3.112;2022-08-21T09:25:12;21.70;99.90
18932;DHT22;9598;50.954;3.112;2022-08-21T09:30:26;21.70;99.90
18932;DHT22;9598;50.954;3.112;2022-08-21T09:35:28;22.00;99.90
18932;DHT22;9598;50.954;3.112;2022-08-21T09:40:35;22.20;99.90
18932;DHT22;9598;50.954;3.112;2022-08-21T09:45:39;22.40;99.90
18932;DHT22;9598;50.954;3.112;2022-08-21T09:50:43;22.50;99.90
18932;DHT22;9598;50.954;3.112;2022-08-21T09:55:52;22.60;99.90
18932;DHT22;9598;50.954;3.112;2022-08-21T10:01:20;22.70;99.90
18932;DHT22;9598;50.954;3.112;2022-08-21T10:06:25;22.70;99.90
18932;DHT22;9598;50.954;3.112;2022-08-21T10:11:28;22.80;99.90
18932;DHT22;9598;50.954;3.112;2022-08-21T10:16:38;22.80;99.90
18932;DHT22;9598;50.954;3.112;2022-08-21T10:22:02;22.90;99.90
18932;DHT22;9598;50.954;3.112;2022-08-21T10:27:15;22.90;99.90
18932;DHT22;9598;50.954;3.112;2022-08-21T10:32:37;23.00;99.90
18932;DHT22;9598;50.954;3.112;2022-08-21T10:37:50;23.20;99.90
18932;DHT22;9598;50.954;3.112;2022-08-21T10:43:06;23.50;99.90
18932;DHT22;9598;50.954;3.112;2022-08-21T10:48:23;23.70;99.90
18932;DHT22;9598;50.954;3.112;2022-08-21T10:53:36;23.70;99.90
18932;DHT22;9598;50.954;3.112;2022-08-21T10:58:49;23.70;99.90
18932;DHT22;9598;50.954;3.112;2022-08-21T11:04:04;23.60;99.90
18932;DHT22;9598;50.954;3.112;2022-08-21T11:09:13;23.60;99.90
18932;DHT22;9598;50.954;3.112;2022-08-21T11:14:21;23.50;99.90
18932;DHT22;9598;50.954;3.112;2022-08-21T11:19:30;23.50;99.90
18932;DHT22;9598;50.954;3.112;2022-08-21T11:24:40;23.60;99.90
18932;DHT22;9598;50.954;3.112;2022-08-21T11:29:48;23.60;99.90
18932;DHT22;9598;50.954;3.112;2022-08-21T11:34:58;23.60;99.90
18932;DHT22;9598;50.954;3.112;2022-08-21T11:40:08;23.70;99.90
18932;DHT22;9598;50.954;3.112;2022-08-21T11:45:21;23.70;99.90
18932;DHT22;9598;50.954;3.112;2022-08-21T11:50:31;23.70;99.90
18932;DHT22;9598;50.954;3.112;2022-08-21T11:55:38;23.80;99.90
18932;DHT22;9598;50.954;3.112;2022-08-21T12:00:45;23.80;99.90
18932;DHT22;9598;50.954;3.112;2022-08-21T12:05:55;23.80;99.90
18932;DHT22;9598;50.954;3.112;2022-08-21T12:11:04;23.70;99.90
18932;DHT22;9598;50.954;3.112;2022-08-21T12:16:08;23.70;99.90
18932;DHT22;9598;50.954;3.112;2022-08-21T12:21:24;23.60;99.90
18932;DHT22;9598;50.954;3.112;2022-08-21T12:26:29;23.70;99.90
18932;DHT22;9598;50.954;3.112;2022-08-21T12:31:32;23.80;99.90
18932;DHT22;9598;50.954;3.112;2022-08-21T12:36:43;24.10;99.90
18932;DHT22;9598;50.954;3.112;2022-08-21T12:41:49;24.20;99.90
18932;DHT22;9598;50.954;3.112;2022-08-21T12:46:57;24.10;99.90
18932;DHT22;9598;50.954;3.112;2022-08-21T12:52:07;24.00;99.90
18932;DHT22;9598;50.954;3.112;2022-08-21T12:57:19;24.00;99.90
18932;DHT22;9598;50.954;3.112;2022-08-21T13:02:23;24.00;99.90
18932;DHT22;9598;50.954;3.112;2022-08-21T13:07:30;24.00;99.90
18932;DHT22;9598;50.954;3.112;2022-08-21T13:12:35;24.00;99.90
18932;DHT22;9598;50.954;3.112;2022-08-21T13:17:41;24.10;99.90
18932;DHT22;9598;50.954;3.112;2022-08-21T13:22:45;24.10;99.90
18932;DHT22;9598;50.954;3.112;2022-08-21T13:27:59;24.10;99.90
18932;DHT22;9598;50.954;3.112;2022-08-21T13:33:04;24.10;99.90
18932;DHT22;9598;50.954;3.112;2022-08-21T13:38:09;24.10;99.90
18932;DHT22;9598;50.954;3.112;2022-08-21T13:43:12;24.10;99.90
18932;DHT22;9598;50.954;3.112;2022-08-21T13:48:18;24.20;99.90
18932;DHT22;9598;50.954;3.112;2022-08-21T13:53:29;24.20;99.90
18932;DHT22;9598;50.954;3.112;2022-08-21T13:58:42;24.10;99.90
18932;DHT22;9598;50.954;3.112;2022-08-21T14:03:47;24.20;99.90
18932;DHT22;9598;50.954;3.112;2022-08-21T14:08:55;24.30;99.90
18932;DHT22;9598;50.954;3.112;2022-08-21T14:14:00;24.30;99.90
18932;DHT22;9598;50.954;3.112;2022-08-21T14:19:09;24.40;99.90
18932;DHT22;9598;50.954;3.112;2022-08-21T14:24:26;24.50;99.90
18932;DHT22;9598;50.954;3.112;2022-08-21T14:29:31;24.60;99.90
18932;DHT22;9598;50.954;3.112;2022-08-21T14:34:34;24.60;99.90
18932;DHT22;9598;50.954;3.112;2022-08-21T14:39:37;24.70;99.90
18932;DHT22;9598;50.954;3.112;2022-08-21T14:44:39;24.80;99.90
18932;DHT22;9598;50.954;3.112;2022-08-21T14:49:41;25.00;99.90
18932;DHT22;9598;50.954;3.112;2022-08-21T14:54:45;25.10;99.90
18932;DHT22;9598;50.954;3.112;2022-08-21T14:59:47;25.10;99.90
18932;DHT22;9598;50.954;3.112;2022-08-21T15:04:49;25.10;99.90
18932;DHT22;9598;50.954;3.112;2022-08-21T15:09:53;25.00;99.90
18932;DHT22;9598;50.954;3.112;2022-08-21T15:14:55;25.00;99.90
18932;DHT22;9598;50.954;3.112;2022-08-21T15:19:57;25.00;99.90
18932;DHT22;9598;50.954;3.112;2022-08-21T15:25:01;24.90;99.90
18932;DHT22;9598;50.954;3.112;2022-08-21T15:30:04;25.00;99.90
18932;DHT22;9598;50.954;3.112;2022-08-21T15:35:06;24.90;99.90
18932;DHT22;9598;50.954;3.112;2022-08-21T15:40:11;24.90;99.90
18932;DHT22;9598;50.954;3.112;2022-08-21T15:45:14;24.90;99.90
18932;DHT22;9598;50.954;3.112;2022-08-21T15:50:17;24.80;99.90
18932;DHT22;9598;50.954;3.112;2022-08-21T15:55:20;24.80;99.90
18932;DHT22;9598;50.954;3.112;2022-08-21T16:00:24;24.80;99.90
18932;DHT22;9598;50.954;3.112;2022-08-21T16:05:26;24.80;99.90
18932;DHT22;9598;50.954;3.112;2022-08-21T16:10:29;24.70;99.90
18932;DHT22;9598;50.954;3.112;2022-08-21T16:15:32;24.60;99.90
18932;DHT22;9598;50.954;3.112;2022-08-21T16:20:34;24.60;99.90
18932;DHT22;9598;50.954;3.112;2022-08-21T16:25:38;24.50;99.90
18932;DHT22;9598;50.954;3.112;2022-08-21T16:30:43;24.50;99.90
18932;DHT22;9598;50.954;3.112;2022-08-21T16:35:45;24.40;99.90
18932;DHT22;9598;50.954;3.112;2022-08-21T16:40:49;24.40;99.90
18932;DHT22;9598;50.954;3.112;2022-08-21T16:45:52;24.30;99.90
18932;DHT22;9598;50.954;3.112;2022-08-21T16:50:54;24.20;99.90
18932;DHT22;9598;50.954;3.112;2022-08-21T16:55:58;24.10;99.90
18932;DHT22;9598;50.954;3.112;2022-08-21T17:01:05;24.10;99.90
18932;DHT22;9598;50.954;3.112;2022-08-21T17:06:08;24.00;99.90
18932;DHT22;9598;50.954;3.112;2022-08-21T17:11:29;24.00;99.90
18932;DHT22;9598;50.954;3.112;2022-08-21T17:16:32;23.90;99.90
18932;DHT22;9598;50.954;3.112;2022-08-21T17:21:34;23.90;99.90
18932;DHT22;9598;50.954;3.112;2022-08-21T17:26:38;23.80;99.90
18932;DHT22;9598;50.954;3.112;2022-08-21T17:31:40;23.80;99.90
18932;DHT22;9598;50.954;3.112;2022-08-21T17:36:43;23.80;99.90
18932;DHT22;9598;50.954;3.112;2022-08-21T17:41:47;23.70;99.90
18932;DHT22;9598;50.954;3.112;2022-08-21T17:46:50;23.70;99.90
18932;DHT22;9598;50.954;3.112;2022-08-21T17:51:53;23.60;99.90
18932;DHT22;9598;50.954;3.112;2022-08-21T17:56:56;23.60;99.90
18932;DHT22;9598;50.954;3.112;2022-08-21T18:01:59;23.60;99.90
18932;DHT22;9598;50.954;3.112;2022-08-21T18:07:02;23.60;99.90
18932;DHT22;9598;50.954;3.112;2022-08-21T18:12:06;23.50;99.90
18932;DHT22;9598;50.954;3.112;2022-08-21T18:17:11;23.50;99.90
18932;DHT22;9598;50.954;3.112;2022-08-21T18:22:15;23.40;99.90
18932;DHT22;9598;50.954;3.112;2022-08-21T18:27:20;23.40;99.90
18932;DHT22;9598;50.954;3.112;2022-08-21T18:32:23;23.30;99.90
18932;DHT22;9598;50.954;3.112;2022-08-21T18:37:27;23.30;99.90
18932;DHT22;9598;50.954;3.112;2022-08-21T18:42:33;23.20;99.90
18932;DHT22;9598;50.954;3.112;2022-08-21T18:47:40;23.20;99.90
18932;DHT22;9598;50.954;3.112;2022-08-21T18:52:43;23.10;99.90
18932;DHT22;9598;50.954;3.112;2022-08-21T18:57:46;23.10;99.90
18932;DHT22;9598;50.954;3.112;2022-08-21T19:02:48;23.00;99.90
18932;DHT22;9598;50.954;3.112;2022-08-21T19:07:51;23.00;99.90
18932;DHT22;9598;50.954;3.112;2022-08-21T19:12:55;23.00;99.90
18932;DHT22;9598;50.954;3.112;2022-08-21T19:17:58;23.00;99.90
18932;DHT22;9598;50.954;3.112;2022-08-21T19:23:00;22.90;99.90
18932;DHT22;9598;50.954;3.112;2022-08-21T19:28:06;22.90;99.90
18932;DHT22;9598;50.954;3.112;2022-08-21T19:33:12;22.80;99.90
18932;DHT22;9598;50.954;3.112;2022-08-21T19:38:16;22.80;99.90
18932;DHT22;9598;50.954;3.112;2022-08-21T19:43:20;22.70;99.90
18932;DHT22;9598;50.954;3.112;2022-08-21T19:48:23;22.70;99.90
18932;DHT22;9598;50.954;3.112;2022-08-21T19:53:25;22.70;99.90
18932;DHT22;9598;50.954;3.112;2022-08-21T19:58:37;22.70;99.90
18932;DHT22;9598;50.954;3.112;2022-08-21T20:03:39;22.60;99.90
18932;DHT22;9598;50.954;3.112;2022-08-21T20:08:41;22.60;99.90
18932;DHT22;9598;50.954;3.112;2022-08-21T20:13:45;22.50;99.90
18932;DHT22;9598;50.954;3.112;2022-08-21T20:18:47;22.40;99.90
18932;DHT22;9598;50.954;3.112;2022-08-21T20:23:49;22.40;99.90
18932;DHT22;9598;50.954;3.112;2022-08-21T20:28:52;22.30;99.90
18932;DHT22;9598;50.954;3.112;2022-08-21T20:33:54;22.20;99.90
18932;DHT22;9598;50.954;3.112;2022-08-21T20:38:57;22.10;99.90
18932;DHT22;9598;50.954;3.112;2022-08-21T20:44:01;22.10;99.90
18932;DHT22;9598;50.954;3.112;2022-08-21T20:49:03;22.10;99.90
18932;DHT22;9598;50.954;3.112;2022-08-21T20:54:20;22.10;99.90
18932;DHT22;9598;50.954;3.112;2022-08-21T20:59:40;22.10;99.90
18932;DHT22;9598;50.954;3.112;2022-08-21T21:04:47;22.10;99.90
18932;DHT22;9598;50.954;3.112;2022-08-21T21:09:51;22.10;99.90
18932;DHT22;9598;50.954;3.112;2022-08-21T21:15:00;22.00;99.90
18932;DHT22;9598;50.954;3.112;2022-08-21T21:20:07;21.90;99.90
18932;DHT22;9598;50.954;3.112;2022-08-21T21:25:15;21.90;99.90
18932;DHT22;9598;50.954;3.112;2022-08-21T21:30:21;21.90;99.90
18932;DHT22;9598;50.954;3.112;2022-08-21T21:35:28;21.90;99.90
18932;DHT22;9598;50.954;3.112;2022-08-21T21:40:43;21.90;99.90
18932;DHT22;9598;50.954;3.112;2022-08-21T21:46:00;21.80;99.90
18932;DHT22;9598;50.954;3.112;2022-08-21T21:51:10;21.80;99.90
18932;DHT22;9598;50.954;3.112;2022-08-21T21:56:23;21.80;99.90
18932;DHT22;9598;50.954;3.112;2022-08-21T22:01:37;21.70;99.90
18932;DHT22;9598;50.954;3.112;2022-08-21T22:06:46;21.70;99.90
18932;DHT22;9598;50.954;3.112;2022-08-21T22:12:00;21.70;99.90
18932;DHT22;9598;50.954;3.112;2022-08-21T22:17:08;21.70;99.90
18932;DHT22;9598;50.954;3.112;2022-08-21T22:22:16;21.70;99.90
18932;DHT22;9598;50.954;3.112;2022-08-21T22:27:22;21.70;99.90
18932;DHT22;9598;50.954;3.112;2022-08-21T22:32:32;21.70;99.90
18932;DHT22;9598;50.954;3.112;2022-08-21T22:37:38;21.70;99.90
18932;DHT22;9598;50.954;3.112;2022-08-21T22:42:41;21.60;99.90
18932;DHT22;9598;50.954;3.112;2022-08-21T22:47:44;21.50;99.90
18932;DHT22;9598;50.954;3.112;2022-08-21T22:52:51;21.40;99.90
18932;DHT22;9598;50.954;3.112;2022-08-21T22:58:05;21.40;99.90
18932;DHT22;9598;50.954;3.112;2022-08-21T23:03:19;21.40;99.90
18932;DHT22;9598;50.954;3.112;2022-08-21T23:08:26;21.30;99.90
18932;DHT22;9598;50.954;3.112;2022-08-21T23:13:39;21.30;99.90
18932;DHT22;9598;50.954;3.112;2022-08-21T23:18:51;21.20;99.90
18932;DHT22;9598;50.954;3.112;2022-08-21T23:24:06;21.20;99.90
18932;DHT22;9598;50.954;3.112;2022-08-21T23:29:19;21.20;99.90
18932;DHT22;9598;50.954;3.112;2022-08-21T23:34:36;21.20;99.90
18932;DHT22;9598;50.954;3.112;2022-08-21T23:39:52;21.20;99.90
18932;DHT22;9598;50.954;3.112;2022-08-21T23:45:02;21.20;99.90
18932;DHT22;9598;50.954;3.112;2022-08-21T23:50:12;21.10;99.90
18932;DHT22;9598;50.954;3.112;2022-08-21T23:55:24;21.10;99.90
